VBD202 SBKP-SBRF
Flight info
| Callsign | VBD202 |
|---|---|
| Flight time | 2h 36m |
| Altitude | 35000 |
| Route | KONVI UZ23 ANBEX |
| Aircraft | B737/M-SDE2E3FGHIRWXY/LB1 |
Departure
| Time | 2026-05-04 12:30 |
|---|---|
| Airport | Viracopos International Airport (SBKP) |
Arrival
| Time | 2026-05-04 15:07 |
|---|---|
| Airport | Recife/Guararapes - Gilberto Freyre International Airport (SBRF) |
| Time | Latitude | Longitude | Altitude | Speed | Heading |
|---|---|---|---|---|---|
| 2026-05-04 12:20 | -23.00358 | -47.14602 | 2120 ft | 0 kts | 218° |
| 2026-05-04 12:26 | -23.00359 | -47.14602 | 2147 ft | 0 kts | 218° |
| 2026-05-04 12:27 | -23.00359 | -47.14615 | 2147 ft | 6 kts | 285° |
| 2026-05-04 12:27 | -23.00298 | -47.14626 | 2147 ft | 11 kts | 15° |
| 2026-05-04 12:27 | -23.00222 | -47.14588 | 2145 ft | 13 kts | 43° |
| 2026-05-04 12:27 | -23.00155 | -47.14589 | 2146 ft | 12 kts | 314° |
| 2026-05-04 12:28 | -23.00096 | -47.14666 | 2143 ft | 14 kts | 308° |
| 2026-05-04 12:28 | -23.00032 | -47.14755 | 2144 ft | 13 kts | 309° |
| 2026-05-04 12:28 | -22.99942 | -47.14778 | 2143 ft | 14 kts | 26° |
| 2026-05-04 12:28 | -22.99927 | -47.14766 | 2141 ft | 0 kts | 42° |
| 2026-05-04 12:29 | -22.99916 | -47.14757 | 2143 ft | 6 kts | 33° |
| 2026-05-04 12:29 | -22.99867 | -47.14692 | 2142 ft | 16 kts | 82° |
| 2026-05-04 12:29 | -22.99902 | -47.14618 | 2142 ft | 27 kts | 128° |
| 2026-05-04 12:30 | -23.00210 | -47.14186 | 2149 ft | 115 kts | 128° |
| 2026-05-04 12:30 | -23.00840 | -47.13299 | 2312 ft | 175 kts | 127° |
| 2026-05-04 12:30 | -23.01664 | -47.12146 | 2875 ft | 209 kts | 126° |
| 2026-05-04 12:30 | -23.02379 | -47.10655 | 3384 ft | 239 kts | 105° |
| 2026-05-04 12:31 | -23.02356 | -47.08839 | 4241 ft | 244 kts | 69° |
| 2026-05-04 12:31 | -23.01765 | -47.07046 | 4989 ft | 261 kts | 69° |
| 2026-05-04 12:31 | -23.01248 | -47.05089 | 5786 ft | 276 kts | 73° |
| 2026-05-04 12:31 | -23.00791 | -47.03049 | 6777 ft | 280 kts | 68° |
| 2026-05-04 12:32 | -22.99775 | -47.01266 | 7553 ft | 281 kts | 43° |
| 2026-05-04 12:32 | -22.96680 | -46.98658 | 7926 ft | 289 kts | 34° |
| 2026-05-04 12:32 | -22.95593 | -46.97801 | 7800 ft | 290 kts | 34° |
| 2026-05-04 12:33 | -22.93998 | -46.96523 | 7889 ft | 281 kts | 34° |
| 2026-05-04 12:33 | -22.92442 | -46.95264 | 7937 ft | 278 kts | 34° |
| 2026-05-04 12:33 | -22.90386 | -46.93583 | 7994 ft | 282 kts | 35° |
| 2026-05-04 12:33 | -22.88843 | -46.92213 | 8445 ft | 291 kts | 38° |
| 2026-05-04 12:34 | -22.87301 | -46.90771 | 9403 ft | 294 kts | 39° |
| 2026-05-04 12:34 | -22.86246 | -46.89780 | 9901 ft | 298 kts | 39° |
| 2026-05-04 12:34 | -22.84672 | -46.88304 | 10181 ft | 300 kts | 39° |
| 2026-05-04 12:34 | -22.83071 | -46.86809 | 10206 ft | 306 kts | 39° |
| 2026-05-04 12:35 | -22.81473 | -46.85322 | 10224 ft | 303 kts | 39° |
| 2026-05-04 12:35 | -22.79873 | -46.83839 | 10221 ft | 301 kts | 39° |
| 2026-05-04 12:35 | -22.78307 | -46.82389 | 10210 ft | 299 kts | 39° |
| 2026-05-04 12:35 | -22.76734 | -46.80878 | 10205 ft | 298 kts | 43° |
| 2026-05-04 12:36 | -22.75289 | -46.79306 | 10214 ft | 300 kts | 44° |
| 2026-05-04 12:36 | -22.73825 | -46.77677 | 10227 ft | 303 kts | 45° |
| 2026-05-04 12:36 | -22.72331 | -46.76012 | 10216 ft | 304 kts | 44° |
| 2026-05-04 12:36 | -22.70854 | -46.74385 | 10222 ft | 303 kts | 44° |
| 2026-05-04 12:37 | -22.69375 | -46.72765 | 10223 ft | 302 kts | 44° |
| 2026-05-04 12:37 | -22.67916 | -46.71171 | 10224 ft | 302 kts | 44° |
| 2026-05-04 12:37 | -22.66436 | -46.69554 | 10230 ft | 302 kts | 44° |
| 2026-05-04 12:37 | -22.64999 | -46.67896 | 10184 ft | 304 kts | 53° |
| 2026-05-04 12:38 | -22.64228 | -46.65683 | 9291 ft | 338 kts | 83° |
| 2026-05-04 12:38 | -22.64222 | -46.63106 | 10129 ft | 338 kts | 96° |
| 2026-05-04 12:38 | -22.64545 | -46.60637 | 11133 ft | 339 kts | 100° |
| 2026-05-04 12:38 | -22.64934 | -46.58035 | 11452 ft | 363 kts | 100° |
| 2026-05-04 12:39 | -22.65306 | -46.55283 | 12009 ft | 375 kts | 99° |
| 2026-05-04 12:39 | -22.65631 | -46.52462 | 12745 ft | 379 kts | 98° |
| 2026-05-04 12:39 | -22.65913 | -46.49628 | 13115 ft | 380 kts | 97° |
| 2026-05-04 12:39 | -22.66168 | -46.46759 | 13210 ft | 386 kts | 97° |
| 2026-05-04 12:40 | -22.66409 | -46.43867 | 13228 ft | 384 kts | 97° |
| 2026-05-04 12:40 | -22.66637 | -46.40999 | 13227 ft | 381 kts | 96° |
| 2026-05-04 12:40 | -22.66866 | -46.38139 | 13227 ft | 381 kts | 97° |
| 2026-05-04 12:40 | -22.67095 | -46.35287 | 13237 ft | 381 kts | 96° |
| 2026-05-04 12:41 | -22.67322 | -46.32427 | 13233 ft | 382 kts | 96° |
| 2026-05-04 12:41 | -22.67550 | -46.29557 | 13236 ft | 383 kts | 96° |
| 2026-05-04 12:41 | -22.67779 | -46.26686 | 13236 ft | 383 kts | 96° |
| 2026-05-04 12:41 | -22.68008 | -46.23807 | 13247 ft | 384 kts | 96° |
| 2026-05-04 12:42 | -22.68190 | -46.20921 | 13227 ft | 386 kts | 90° |
| 2026-05-04 12:42 | -22.67628 | -46.18090 | 13253 ft | 387 kts | 66° |
| 2026-05-04 12:42 | -22.66200 | -46.15611 | 13602 ft | 392 kts | 47° |
| 2026-05-04 12:42 | -22.64209 | -46.13601 | 14441 ft | 393 kts | 39° |
| 2026-05-04 12:43 | -22.62080 | -46.11719 | 15092 ft | 398 kts | 37° |
| 2026-05-04 12:43 | -22.59886 | -46.09847 | 15675 ft | 405 kts | 36° |
| 2026-05-04 12:43 | -22.57664 | -46.07955 | 16413 ft | 408 kts | 36° |
| 2026-05-04 12:43 | -22.55429 | -46.06033 | 17081 ft | 413 kts | 36° |
| 2026-05-04 12:44 | -22.53176 | -46.04074 | 17723 ft | 418 kts | 36° |
| 2026-05-04 12:44 | -22.50899 | -46.02081 | 18346 ft | 423 kts | 36° |
| 2026-05-04 12:44 | -22.48604 | -46.00064 | 18881 ft | 428 kts | 36° |
| 2026-05-04 12:44 | -22.46283 | -45.98020 | 19420 ft | 432 kts | 36° |
| 2026-05-04 12:45 | -22.43977 | -45.95988 | 19966 ft | 435 kts | 36° |
| 2026-05-04 12:45 | -22.41621 | -45.93912 | 20529 ft | 439 kts | 36° |
| 2026-05-04 12:45 | -22.39247 | -45.91823 | 21052 ft | 443 kts | 36° |
| 2026-05-04 12:45 | -22.36844 | -45.89709 | 21527 ft | 448 kts | 36° |
| 2026-05-04 12:46 | -22.34421 | -45.87579 | 22065 ft | 451 kts | 36° |
| 2026-05-04 12:46 | -22.31981 | -45.85435 | 22590 ft | 454 kts | 36° |
| 2026-05-04 12:46 | -22.29520 | -45.83275 | 23084 ft | 458 kts | 36° |
| 2026-05-04 12:46 | -22.27036 | -45.81099 | 23568 ft | 462 kts | 35° |
| 2026-05-04 12:47 | -22.24520 | -45.78917 | 24008 ft | 465 kts | 35° |
| 2026-05-04 12:47 | -22.21983 | -45.76728 | 24413 ft | 469 kts | 35° |
| 2026-05-04 12:47 | -22.19431 | -45.74529 | 24857 ft | 471 kts | 34° |
| 2026-05-04 12:47 | -22.16861 | -45.72317 | 25247 ft | 474 kts | 34° |
| 2026-05-04 12:48 | -22.14273 | -45.70087 | 25621 ft | 478 kts | 34° |
| 2026-05-04 12:48 | -22.11663 | -45.67837 | 25998 ft | 482 kts | 34° |
| 2026-05-04 12:48 | -22.09039 | -45.65576 | 26377 ft | 485 kts | 34° |
| 2026-05-04 12:48 | -22.06398 | -45.63298 | 26739 ft | 488 kts | 34° |
| 2026-05-04 12:49 | -22.03735 | -45.61003 | 27069 ft | 491 kts | 34° |
| 2026-05-04 12:49 | -22.01062 | -45.58700 | 27437 ft | 494 kts | 34° |
| 2026-05-04 12:49 | -21.98373 | -45.56385 | 27782 ft | 496 kts | 33° |
| 2026-05-04 12:49 | -21.95669 | -45.54058 | 28153 ft | 498 kts | 33° |
| 2026-05-04 12:50 | -21.92954 | -45.51723 | 28463 ft | 502 kts | 33° |
| 2026-05-04 12:50 | -21.90216 | -45.49370 | 28733 ft | 505 kts | 33° |
| 2026-05-04 12:50 | -21.87461 | -45.47004 | 29016 ft | 508 kts | 33° |
| 2026-05-04 12:50 | -21.84728 | -45.44657 | 29321 ft | 510 kts | 33° |
| 2026-05-04 12:51 | -21.81908 | -45.42236 | 29627 ft | 513 kts | 33° |
| 2026-05-04 12:51 | -21.79148 | -45.39869 | 29885 ft | 516 kts | 33° |
| 2026-05-04 12:51 | -21.76333 | -45.37456 | 30140 ft | 519 kts | 33° |
| 2026-05-04 12:51 | -21.73509 | -45.35034 | 30471 ft | 519 kts | 33° |
| 2026-05-04 12:52 | -21.70692 | -45.32619 | 30864 ft | 517 kts | 33° |
| 2026-05-04 12:52 | -21.67889 | -45.30216 | 31358 ft | 513 kts | 32° |
| 2026-05-04 12:52 | -21.65106 | -45.27832 | 31756 ft | 512 kts | 32° |
| 2026-05-04 12:52 | -21.62314 | -45.25445 | 32048 ft | 513 kts | 32° |
| 2026-05-04 12:53 | -21.59517 | -45.23056 | 32351 ft | 514 kts | 32° |
| 2026-05-04 12:53 | -21.56726 | -45.20673 | 32764 ft | 513 kts | 32° |
| 2026-05-04 12:53 | -21.53943 | -45.18295 | 33226 ft | 510 kts | 32° |
| 2026-05-04 12:53 | -21.51174 | -45.15930 | 33676 ft | 508 kts | 32° |
| 2026-05-04 12:54 | -21.48408 | -45.13571 | 34028 ft | 508 kts | 32° |
| 2026-05-04 12:54 | -21.45639 | -45.11211 | 34305 ft | 509 kts | 32° |
| 2026-05-04 12:54 | -21.42869 | -45.08852 | 34577 ft | 509 kts | 32° |
| 2026-05-04 12:54 | -21.40098 | -45.06492 | 34879 ft | 508 kts | 32° |
| 2026-05-04 12:55 | -21.37334 | -45.04139 | 35152 ft | 507 kts | 32° |
| 2026-05-04 12:55 | -21.34564 | -45.01782 | 35281 ft | 511 kts | 32° |
| 2026-05-04 12:55 | -21.31763 | -44.99402 | 35224 ft | 514 kts | 32° |
| 2026-05-04 12:56 | -21.26175 | -44.94647 | 35232 ft | 510 kts | 32° |
| 2026-05-04 12:56 | -21.20642 | -44.89948 | 35244 ft | 507 kts | 32° |
| 2026-05-04 12:57 | -21.15117 | -44.85254 | 35235 ft | 506 kts | 32° |
| 2026-05-04 12:57 | -21.09613 | -44.80560 | 35250 ft | 506 kts | 32° |
| 2026-05-04 12:58 | -21.04111 | -44.75887 | 35251 ft | 505 kts | 31° |
| 2026-05-04 12:58 | -20.98429 | -44.71501 | 35255 ft | 503 kts | 28° |
| 2026-05-04 12:59 | -20.92682 | -44.67217 | 35253 ft | 504 kts | 29° |
| 2026-05-04 12:59 | -20.86953 | -44.62872 | 35261 ft | 505 kts | 29° |
| 2026-05-04 13:00 | -20.81230 | -44.58498 | 35262 ft | 506 kts | 29° |
| 2026-05-04 13:00 | -20.75491 | -44.54123 | 35259 ft | 506 kts | 29° |
| 2026-05-04 13:01 | -20.69749 | -44.49750 | 35251 ft | 507 kts | 29° |
| 2026-05-04 13:01 | -20.64005 | -44.45378 | 35256 ft | 507 kts | 29° |
| 2026-05-04 13:02 | -20.58271 | -44.41016 | 35254 ft | 506 kts | 29° |
| 2026-05-04 13:02 | -20.52533 | -44.36655 | 35254 ft | 506 kts | 29° |
| 2026-05-04 13:03 | -20.46841 | -44.32332 | 35240 ft | 505 kts | 29° |
| 2026-05-04 13:03 | -20.41142 | -44.27969 | 35236 ft | 505 kts | 31° |
| 2026-05-04 13:04 | -20.35513 | -44.23486 | 35269 ft | 505 kts | 31° |
| 2026-05-04 13:04 | -20.29897 | -44.18994 | 35280 ft | 504 kts | 31° |
| 2026-05-04 13:05 | -20.24268 | -44.14523 | 35259 ft | 504 kts | 31° |
| 2026-05-04 13:05 | -20.18647 | -44.10074 | 35248 ft | 504 kts | 31° |
| 2026-05-04 13:06 | -20.13029 | -44.05629 | 35264 ft | 504 kts | 31° |
| 2026-05-04 13:06 | -20.07404 | -44.01186 | 35283 ft | 503 kts | 31° |
| 2026-05-04 13:07 | -20.01767 | -43.96764 | 35266 ft | 503 kts | 31° |
| 2026-05-04 13:07 | -19.96141 | -43.92358 | 35290 ft | 502 kts | 31° |
| 2026-05-04 13:08 | -19.90518 | -43.87952 | 35286 ft | 502 kts | 31° |
| 2026-05-04 13:08 | -19.84890 | -43.83549 | 35299 ft | 501 kts | 30° |
| 2026-05-04 13:09 | -19.79171 | -43.79336 | 35290 ft | 500 kts | 28° |
| 2026-05-04 13:09 | -19.73392 | -43.75217 | 35272 ft | 501 kts | 28° |
| 2026-05-04 13:10 | -19.67623 | -43.71075 | 35287 ft | 500 kts | 28° |
| 2026-05-04 13:10 | -19.61875 | -43.66920 | 35291 ft | 500 kts | 28° |
| 2026-05-04 13:11 | -19.56127 | -43.62760 | 35271 ft | 500 kts | 28° |
| 2026-05-04 13:11 | -19.50378 | -43.58604 | 35266 ft | 500 kts | 28° |
| 2026-05-04 13:12 | -19.44632 | -43.54457 | 35259 ft | 499 kts | 28° |
| 2026-05-04 13:12 | -19.38893 | -43.50317 | 35261 ft | 499 kts | 29° |
| 2026-05-04 13:13 | -19.33151 | -43.46179 | 35262 ft | 499 kts | 28° |
| 2026-05-04 13:13 | -19.27458 | -43.41956 | 35264 ft | 501 kts | 31° |
| 2026-05-04 13:14 | -19.21907 | -43.37497 | 35230 ft | 501 kts | 32° |
| 2026-05-04 13:14 | -19.16404 | -43.33054 | 35258 ft | 500 kts | 32° |
| 2026-05-04 13:15 | -19.10834 | -43.28617 | 35225 ft | 501 kts | 32° |
| 2026-05-04 13:15 | -19.05264 | -43.24208 | 35243 ft | 500 kts | 32° |
| 2026-05-04 13:16 | -18.99694 | -43.19804 | 35254 ft | 499 kts | 32° |
| 2026-05-04 13:16 | -18.94123 | -43.15400 | 35238 ft | 500 kts | 32° |
| 2026-05-04 13:17 | -18.88558 | -43.11003 | 35237 ft | 499 kts | 32° |
| 2026-05-04 13:17 | -18.82999 | -43.06614 | 35236 ft | 499 kts | 32° |
| 2026-05-04 13:18 | -18.77436 | -43.02227 | 35242 ft | 499 kts | 32° |
| 2026-05-04 13:18 | -18.71875 | -42.97848 | 35235 ft | 499 kts | 32° |
| 2026-05-04 13:19 | -18.66319 | -42.93475 | 35234 ft | 499 kts | 32° |
| 2026-05-04 13:19 | -18.60761 | -42.89102 | 35238 ft | 498 kts | 32° |
| 2026-05-04 13:20 | -18.55206 | -42.84735 | 35237 ft | 498 kts | 32° |
| 2026-05-04 13:20 | -18.50592 | -42.81110 | 35239 ft | 498 kts | 32° |
| 2026-05-04 13:21 | -18.45042 | -42.76751 | 35248 ft | 498 kts | 32° |
| 2026-05-04 13:21 | -18.38585 | -42.71681 | 35234 ft | 497 kts | 32° |
| 2026-05-04 13:22 | -18.33038 | -42.67327 | 35228 ft | 497 kts | 32° |
| 2026-05-04 13:22 | -18.28391 | -42.63684 | 35240 ft | 497 kts | 32° |
| 2026-05-04 13:23 | -18.22889 | -42.59374 | 35248 ft | 496 kts | 32° |
| 2026-05-04 13:23 | -18.17349 | -42.55038 | 35231 ft | 496 kts | 32° |
| 2026-05-04 13:24 | -18.11785 | -42.50685 | 35244 ft | 495 kts | 32° |
| 2026-05-04 13:24 | -18.06261 | -42.46369 | 35235 ft | 495 kts | 32° |
| 2026-05-04 13:25 | -17.98021 | -42.39936 | 35230 ft | 494 kts | 32° |
| 2026-05-04 13:25 | -17.92504 | -42.35633 | 35229 ft | 494 kts | 32° |
| 2026-05-04 13:26 | -17.86996 | -42.31340 | 35251 ft | 493 kts | 32° |
| 2026-05-04 13:26 | -17.81489 | -42.27051 | 35241 ft | 493 kts | 32° |
| 2026-05-04 13:27 | -17.75986 | -42.22769 | 35244 ft | 493 kts | 32° |
| 2026-05-04 13:27 | -17.70480 | -42.18488 | 35262 ft | 492 kts | 32° |
| 2026-05-04 13:28 | -17.64980 | -42.14215 | 35235 ft | 492 kts | 32° |
| 2026-05-04 13:28 | -17.59476 | -42.09942 | 35258 ft | 492 kts | 32° |
| 2026-05-04 13:29 | -17.53977 | -42.05675 | 35254 ft | 491 kts | 32° |
| 2026-05-04 13:29 | -17.48476 | -42.01410 | 35251 ft | 492 kts | 32° |
| 2026-05-04 13:30 | -17.42969 | -41.97144 | 35241 ft | 492 kts | 32° |
| 2026-05-04 13:30 | -17.37465 | -41.92879 | 35253 ft | 492 kts | 32° |
| 2026-05-04 13:31 | -17.31956 | -41.88612 | 35240 ft | 493 kts | 32° |
| 2026-05-04 13:31 | -17.26447 | -41.84347 | 35247 ft | 493 kts | 32° |
| 2026-05-04 13:32 | -17.20938 | -41.80085 | 35247 ft | 493 kts | 32° |
| 2026-05-04 13:32 | -17.15422 | -41.75822 | 35252 ft | 493 kts | 32° |
| 2026-05-04 13:33 | -17.09905 | -41.71561 | 35228 ft | 493 kts | 33° |
| 2026-05-04 13:33 | -17.04423 | -41.67331 | 35226 ft | 493 kts | 33° |
| 2026-05-04 13:34 | -16.98907 | -41.63076 | 35227 ft | 493 kts | 33° |
| 2026-05-04 13:34 | -16.93389 | -41.58824 | 35225 ft | 493 kts | 33° |
| 2026-05-04 13:35 | -16.85112 | -41.52451 | 35235 ft | 493 kts | 32° |
| 2026-05-04 13:36 | -16.79586 | -41.48200 | 35208 ft | 493 kts | 32° |
| 2026-05-04 13:36 | -16.74067 | -41.43956 | 35215 ft | 494 kts | 32° |
| 2026-05-04 13:37 | -16.68541 | -41.39710 | 35225 ft | 493 kts | 33° |
| 2026-05-04 13:37 | -16.63038 | -41.35449 | 35225 ft | 493 kts | 33° |
| 2026-05-04 13:38 | -16.57525 | -41.31167 | 35215 ft | 494 kts | 33° |
| 2026-05-04 13:38 | -16.52014 | -41.26892 | 35204 ft | 494 kts | 33° |
| 2026-05-04 13:39 | -16.46503 | -41.22622 | 35217 ft | 493 kts | 33° |
| 2026-05-04 13:39 | -16.40996 | -41.18361 | 35213 ft | 493 kts | 33° |
| 2026-05-04 13:40 | -16.35493 | -41.14105 | 35207 ft | 493 kts | 33° |
| 2026-05-04 13:40 | -16.30023 | -41.09878 | 35189 ft | 493 kts | 33° |
| 2026-05-04 13:41 | -16.24525 | -41.05633 | 35191 ft | 492 kts | 34° |
| 2026-05-04 13:41 | -16.19035 | -41.01396 | 35200 ft | 491 kts | 34° |
| 2026-05-04 13:42 | -16.10799 | -40.95047 | 35204 ft | 491 kts | 34° |
| 2026-05-04 13:42 | -16.05312 | -40.90821 | 35196 ft | 491 kts | 33° |
| 2026-05-04 13:43 | -15.99825 | -40.86597 | 35184 ft | 491 kts | 34° |
| 2026-05-04 13:43 | -15.94338 | -40.82376 | 35188 ft | 491 kts | 34° |
| 2026-05-04 13:44 | -15.88848 | -40.78156 | 35184 ft | 491 kts | 34° |
| 2026-05-04 13:44 | -15.83364 | -40.73944 | 35195 ft | 490 kts | 34° |
| 2026-05-04 13:45 | -15.77874 | -40.69730 | 35171 ft | 491 kts | 34° |
| 2026-05-04 13:45 | -15.72383 | -40.65518 | 35176 ft | 491 kts | 34° |
| 2026-05-04 13:46 | -15.66895 | -40.61310 | 35180 ft | 490 kts | 34° |
| 2026-05-04 13:46 | -15.61439 | -40.57131 | 35179 ft | 490 kts | 34° |
| 2026-05-04 13:47 | -15.55957 | -40.52934 | 35164 ft | 490 kts | 34° |
| 2026-05-04 13:47 | -15.50477 | -40.48741 | 35183 ft | 489 kts | 34° |
| 2026-05-04 13:48 | -15.45007 | -40.44559 | 35172 ft | 489 kts | 34° |
| 2026-05-04 13:48 | -15.39534 | -40.40378 | 35160 ft | 489 kts | 34° |
| 2026-05-04 13:49 | -15.34059 | -40.36197 | 35172 ft | 488 kts | 34° |
| 2026-05-04 13:49 | -15.28586 | -40.32020 | 35170 ft | 489 kts | 34° |
| 2026-05-04 13:50 | -15.23110 | -40.27847 | 35164 ft | 489 kts | 34° |
| 2026-05-04 13:50 | -15.17628 | -40.23673 | 35166 ft | 489 kts | 34° |
| 2026-05-04 13:51 | -15.12156 | -40.19507 | 35161 ft | 489 kts | 34° |
| 2026-05-04 13:51 | -15.06675 | -40.15337 | 35157 ft | 489 kts | 35° |
| 2026-05-04 13:52 | -14.98459 | -40.09090 | 35157 ft | 488 kts | 35° |
| 2026-05-04 13:53 | -14.92986 | -40.04933 | 35160 ft | 488 kts | 34° |
| 2026-05-04 13:53 | -14.87508 | -40.00774 | 35147 ft | 488 kts | 34° |
| 2026-05-04 13:54 | -14.79310 | -39.94555 | 35158 ft | 487 kts | 35° |
| 2026-05-04 13:55 | -14.71145 | -39.88367 | 35142 ft | 487 kts | 35° |
| 2026-05-04 13:55 | -14.62916 | -39.82137 | 35141 ft | 487 kts | 35° |
| 2026-05-04 13:56 | -14.57494 | -39.78035 | 35146 ft | 486 kts | 35° |
| 2026-05-04 13:57 | -14.49307 | -39.71845 | 35133 ft | 486 kts | 34° |
| 2026-05-04 13:58 | -14.38407 | -39.63613 | 35132 ft | 485 kts | 35° |
| 2026-05-04 13:58 | -14.30226 | -39.57443 | 35127 ft | 486 kts | 35° |
| 2026-05-04 13:59 | -14.24763 | -39.53347 | 35132 ft | 486 kts | 35° |
| 2026-05-04 14:00 | -14.16552 | -39.47201 | 35125 ft | 486 kts | 34° |
| 2026-05-04 14:00 | -14.08345 | -39.41058 | 35129 ft | 486 kts | 35° |
| 2026-05-04 14:01 | -14.02877 | -39.36967 | 35129 ft | 486 kts | 35° |
| 2026-05-04 14:02 | -13.94669 | -39.30831 | 35118 ft | 486 kts | 35° |
| 2026-05-04 14:02 | -13.89196 | -39.26743 | 35115 ft | 486 kts | 35° |
| 2026-05-04 14:03 | -13.83732 | -39.22663 | 35117 ft | 486 kts | 35° |
| 2026-05-04 14:03 | -13.78257 | -39.18579 | 35119 ft | 486 kts | 35° |
| 2026-05-04 14:04 | -13.70043 | -39.12454 | 35113 ft | 486 kts | 35° |
| 2026-05-04 14:04 | -13.64571 | -39.08376 | 35110 ft | 486 kts | 35° |
| 2026-05-04 14:05 | -13.56387 | -39.02289 | 35104 ft | 486 kts | 35° |
| 2026-05-04 14:06 | -13.50900 | -38.98231 | 35114 ft | 486 kts | 35° |
| 2026-05-04 14:06 | -13.45409 | -38.94176 | 35103 ft | 486 kts | 35° |
| 2026-05-04 14:07 | -13.39928 | -38.90126 | 35113 ft | 485 kts | 35° |
| 2026-05-04 14:07 | -13.34442 | -38.86074 | 35104 ft | 485 kts | 35° |
| 2026-05-04 14:08 | -13.28960 | -38.82026 | 35111 ft | 485 kts | 35° |
| 2026-05-04 14:08 | -13.23480 | -38.77982 | 35107 ft | 485 kts | 35° |
| 2026-05-04 14:09 | -13.15256 | -38.71919 | 35101 ft | 485 kts | 35° |
| 2026-05-04 14:10 | -13.07034 | -38.65861 | 35104 ft | 485 kts | 35° |
| 2026-05-04 14:10 | -13.01545 | -38.61820 | 35097 ft | 486 kts | 35° |
| 2026-05-04 14:11 | -12.96985 | -38.58464 | 35106 ft | 486 kts | 35° |
| 2026-05-04 14:11 | -12.88742 | -38.52403 | 35090 ft | 486 kts | 35° |
| 2026-05-04 14:12 | -12.83244 | -38.48362 | 35105 ft | 486 kts | 35° |
| 2026-05-04 14:13 | -12.74999 | -38.42308 | 35081 ft | 487 kts | 35° |
| 2026-05-04 14:13 | -12.69497 | -38.38270 | 35090 ft | 486 kts | 35° |
| 2026-05-04 14:14 | -12.63993 | -38.34233 | 35088 ft | 487 kts | 36° |
| 2026-05-04 14:14 | -12.55730 | -38.28176 | 35103 ft | 487 kts | 36° |
| 2026-05-04 14:15 | -12.44707 | -38.20103 | 35095 ft | 488 kts | 36° |
| 2026-05-04 14:16 | -12.36429 | -38.14046 | 35095 ft | 487 kts | 36° |
| 2026-05-04 14:17 | -12.28195 | -38.08025 | 35095 ft | 487 kts | 36° |
| 2026-05-04 14:18 | -12.19918 | -38.01986 | 35095 ft | 487 kts | 35° |
| 2026-05-04 14:19 | -12.08888 | -37.93943 | 35095 ft | 487 kts | 35° |
| 2026-05-04 14:19 | -12.03379 | -37.89928 | 35098 ft | 487 kts | 35° |
| 2026-05-04 14:20 | -11.97864 | -37.85910 | 35086 ft | 487 kts | 35° |
| 2026-05-04 14:20 | -11.92350 | -37.81895 | 35098 ft | 486 kts | 35° |
| 2026-05-04 14:21 | -11.84081 | -37.75884 | 35084 ft | 486 kts | 35° |
| 2026-05-04 14:21 | -11.78566 | -37.71888 | 35093 ft | 486 kts | 35° |
| 2026-05-04 14:22 | -11.73056 | -37.67896 | 35090 ft | 486 kts | 35° |
| 2026-05-04 14:22 | -11.67543 | -37.63902 | 35082 ft | 486 kts | 35° |
| 2026-05-04 14:23 | -11.59281 | -37.57918 | 35079 ft | 486 kts | 35° |
| 2026-05-04 14:24 | -11.53811 | -37.53959 | 35096 ft | 485 kts | 35° |
| 2026-05-04 14:24 | -11.48305 | -37.49977 | 35075 ft | 485 kts | 35° |
| 2026-05-04 14:25 | -11.42801 | -37.45997 | 35089 ft | 485 kts | 35° |
| 2026-05-04 14:25 | -11.34542 | -37.40029 | 35084 ft | 484 kts | 35° |
| 2026-05-04 14:26 | -11.29044 | -37.36059 | 35070 ft | 484 kts | 35° |
| 2026-05-04 14:26 | -11.23551 | -37.32094 | 35082 ft | 483 kts | 35° |
| 2026-05-04 14:27 | -11.18065 | -37.28136 | 35066 ft | 483 kts | 35° |
| 2026-05-04 14:27 | -11.12579 | -37.24179 | 35059 ft | 483 kts | 35° |
| 2026-05-04 14:28 | -11.07094 | -37.20225 | 35057 ft | 483 kts | 35° |
| 2026-05-04 14:28 | -11.01607 | -37.16271 | 35043 ft | 484 kts | 35° |
| 2026-05-04 14:29 | -10.90612 | -37.08385 | 35039 ft | 484 kts | 35° |
| 2026-05-04 14:30 | -10.85111 | -37.04447 | 35060 ft | 483 kts | 35° |
| 2026-05-04 14:31 | -10.76851 | -36.98532 | 35063 ft | 484 kts | 34° |
| 2026-05-04 14:32 | -10.65807 | -36.90629 | 35059 ft | 486 kts | 34° |
| 2026-05-04 14:32 | -10.60274 | -36.86672 | 35063 ft | 486 kts | 34° |
| 2026-05-04 14:33 | -10.54738 | -36.82715 | 35049 ft | 487 kts | 34° |
| 2026-05-04 14:33 | -10.49197 | -36.78756 | 35056 ft | 487 kts | 34° |
| 2026-05-04 14:34 | -10.43687 | -36.74821 | 35051 ft | 488 kts | 34° |
| 2026-05-04 14:34 | -10.38131 | -36.70855 | 35052 ft | 487 kts | 34° |
| 2026-05-04 14:35 | -10.32584 | -36.66897 | 35052 ft | 487 kts | 34° |
| 2026-05-04 14:35 | -10.27043 | -36.62944 | 35040 ft | 487 kts | 34° |
| 2026-05-04 14:36 | -10.21500 | -36.58992 | 35054 ft | 487 kts | 34° |
| 2026-05-04 14:36 | -10.15957 | -36.55041 | 35043 ft | 487 kts | 34° |
| 2026-05-04 14:37 | -10.10409 | -36.51101 | 35048 ft | 487 kts | 34° |
| 2026-05-04 14:37 | -10.04857 | -36.47171 | 35044 ft | 487 kts | 34° |
| 2026-05-04 14:38 | -9.99298 | -36.43237 | 35036 ft | 487 kts | 34° |
| 2026-05-04 14:38 | -9.93743 | -36.39305 | 35046 ft | 487 kts | 34° |
| 2026-05-04 14:39 | -9.88221 | -36.35396 | 35038 ft | 487 kts | 34° |
| 2026-05-04 14:39 | -9.82661 | -36.31463 | 35039 ft | 487 kts | 34° |
| 2026-05-04 14:40 | -9.74321 | -36.25565 | 35040 ft | 487 kts | 33° |
| 2026-05-04 14:40 | -9.68765 | -36.21638 | 35040 ft | 487 kts | 33° |
| 2026-05-04 14:41 | -9.63203 | -36.17710 | 35045 ft | 487 kts | 33° |
| 2026-05-04 14:42 | -9.52090 | -36.09863 | 35052 ft | 487 kts | 33° |
| 2026-05-04 14:42 | -9.46529 | -36.05939 | 35037 ft | 487 kts | 33° |
| 2026-05-04 14:43 | -9.40970 | -36.02018 | 35046 ft | 487 kts | 33° |
| 2026-05-04 14:43 | -9.35408 | -35.98097 | 35042 ft | 487 kts | 33° |
| 2026-05-04 14:44 | -9.32619 | -35.96131 | 34822 ft | 489 kts | 33° |
| 2026-05-04 14:44 | -9.29831 | -35.94166 | 34549 ft | 487 kts | 33° |
| 2026-05-04 14:44 | -9.27059 | -35.92213 | 34351 ft | 486 kts | 33° |
| 2026-05-04 14:44 | -9.24276 | -35.90253 | 34116 ft | 488 kts | 33° |
| 2026-05-04 14:45 | -9.21488 | -35.88289 | 33881 ft | 489 kts | 33° |
| 2026-05-04 14:45 | -9.18694 | -35.86321 | 33630 ft | 490 kts | 33° |
| 2026-05-04 14:45 | -9.15892 | -35.84349 | 33363 ft | 490 kts | 33° |
| 2026-05-04 14:45 | -9.13098 | -35.82382 | 33122 ft | 489 kts | 33° |
| 2026-05-04 14:46 | -9.10303 | -35.80414 | 32867 ft | 489 kts | 33° |
| 2026-05-04 14:46 | -9.07516 | -35.78453 | 32623 ft | 488 kts | 34° |
| 2026-05-04 14:46 | -9.04767 | -35.76518 | 32376 ft | 487 kts | 34° |
| 2026-05-04 14:46 | -9.01990 | -35.74558 | 32138 ft | 486 kts | 35° |
| 2026-05-04 14:47 | -8.99365 | -35.72403 | 31864 ft | 487 kts | 41° |
| 2026-05-04 14:47 | -8.96898 | -35.70067 | 31668 ft | 485 kts | 43° |
| 2026-05-04 14:47 | -8.94491 | -35.67671 | 31428 ft | 486 kts | 44° |
| 2026-05-04 14:47 | -8.92088 | -35.65266 | 31192 ft | 486 kts | 43° |
| 2026-05-04 14:48 | -8.89664 | -35.62875 | 30962 ft | 487 kts | 43° |
| 2026-05-04 14:48 | -8.87214 | -35.60499 | 30738 ft | 489 kts | 43° |
| 2026-05-04 14:48 | -8.84745 | -35.58134 | 30509 ft | 490 kts | 42° |
| 2026-05-04 14:48 | -8.82259 | -35.55768 | 30286 ft | 491 kts | 42° |
| 2026-05-04 14:49 | -8.79763 | -35.53397 | 30045 ft | 493 kts | 43° |
| 2026-05-04 14:49 | -8.77265 | -35.51024 | 29787 ft | 493 kts | 43° |
| 2026-05-04 14:49 | -8.74765 | -35.48645 | 29532 ft | 494 kts | 43° |
| 2026-05-04 14:49 | -8.72266 | -35.46266 | 29117 ft | 490 kts | 43° |
| 2026-05-04 14:50 | -8.69790 | -35.43909 | 28264 ft | 486 kts | 43° |
| 2026-05-04 14:50 | -8.67385 | -35.41622 | 28189 ft | 466 kts | 43° |
| 2026-05-04 14:50 | -8.65048 | -35.39403 | 27871 ft | 456 kts | 43° |
| 2026-05-04 14:50 | -8.62724 | -35.37199 | 27450 ft | 466 kts | 43° |
| 2026-05-04 14:51 | -8.60324 | -35.34924 | 26618 ft | 474 kts | 43° |
| 2026-05-04 14:51 | -8.57949 | -35.32672 | 25920 ft | 465 kts | 44° |
| 2026-05-04 14:51 | -8.55592 | -35.30437 | 25162 ft | 460 kts | 44° |
| 2026-05-04 14:51 | -8.53282 | -35.28245 | 24412 ft | 454 kts | 44° |
| 2026-05-04 14:52 | -8.50996 | -35.26077 | 23692 ft | 447 kts | 43° |
| 2026-05-04 14:52 | -8.48768 | -35.23963 | 22826 ft | 443 kts | 45° |
| 2026-05-04 14:52 | -8.46507 | -35.21820 | 22051 ft | 436 kts | 45° |
| 2026-05-04 14:52 | -8.44311 | -35.19740 | 21312 ft | 429 kts | 45° |
| 2026-05-04 14:53 | -8.42149 | -35.17690 | 20588 ft | 423 kts | 43° |
| 2026-05-04 14:53 | -8.40042 | -35.15699 | 19882 ft | 418 kts | 45° |
| 2026-05-04 14:53 | -8.37928 | -35.13701 | 19138 ft | 415 kts | 43° |
| 2026-05-04 14:53 | -8.35834 | -35.11723 | 18419 ft | 411 kts | 44° |
| 2026-05-04 14:54 | -8.33757 | -35.09761 | 17600 ft | 407 kts | 44° |
| 2026-05-04 14:54 | -8.31702 | -35.07818 | 16890 ft | 401 kts | 43° |
| 2026-05-04 14:54 | -8.29677 | -35.05905 | 16147 ft | 396 kts | 43° |
| 2026-05-04 14:54 | -8.27449 | -35.04312 | 15372 ft | 393 kts | 26° |
| 2026-05-04 14:55 | -8.24886 | -35.03452 | 14841 ft | 384 kts | 14° |
| 2026-05-04 14:55 | -8.22283 | -35.02867 | 14069 ft | 383 kts | 13° |
| 2026-05-04 14:55 | -8.19718 | -35.02313 | 13394 ft | 369 kts | 13° |
| 2026-05-04 14:55 | -8.17222 | -35.01993 | 12637 ft | 358 kts | 359° |
| 2026-05-04 14:56 | -8.14807 | -35.02379 | 11918 ft | 348 kts | 347° |
| 2026-05-04 14:56 | -8.12505 | -35.03092 | 11183 ft | 341 kts | 345° |
| 2026-05-04 14:56 | -8.10305 | -35.03815 | 10789 ft | 326 kts | 345° |
| 2026-05-04 14:56 | -8.08194 | -35.04541 | 10606 ft | 313 kts | 342° |
| 2026-05-04 14:57 | -8.06190 | -35.05280 | 10513 ft | 305 kts | 343° |
| 2026-05-04 14:57 | -8.04249 | -35.06021 | 10620 ft | 286 kts | 341° |
| 2026-05-04 14:57 | -8.02457 | -35.06725 | 10463 ft | 265 kts | 342° |
| 2026-05-04 14:57 | -8.00806 | -35.07332 | 10318 ft | 241 kts | 343° |
| 2026-05-04 14:58 | -7.99289 | -35.07881 | 10187 ft | 222 kts | 343° |
| 2026-05-04 14:58 | -7.97890 | -35.08375 | 10027 ft | 206 kts | 343° |
| 2026-05-04 14:58 | -7.96542 | -35.08865 | 9577 ft | 207 kts | 342° |
| 2026-05-04 14:58 | -7.95644 | -35.09192 | 9288 ft | 207 kts | 345° |
| 2026-05-04 14:59 | -7.93813 | -35.09818 | 8666 ft | 206 kts | 355° |
| 2026-05-04 14:59 | -7.92433 | -35.09639 | 8159 ft | 199 kts | 35° |
| 2026-05-04 14:59 | -7.91634 | -35.07431 | 7363 ft | 175 kts | 126° |
| 2026-05-04 15:00 | -7.92615 | -35.06806 | 7094 ft | 170 kts | 168° |
| 2026-05-04 15:00 | -7.93758 | -35.06608 | 6806 ft | 168 kts | 160° |
| 2026-05-04 15:00 | -7.94599 | -35.05855 | 6437 ft | 168 kts | 116° |
| 2026-05-04 15:01 | -7.95537 | -35.03761 | 5868 ft | 164 kts | 118° |
| 2026-05-04 15:01 | -7.96015 | -35.02717 | 5596 ft | 161 kts | 118° |
| 2026-05-04 15:01 | -7.96485 | -35.01689 | 5245 ft | 163 kts | 118° |
| 2026-05-04 15:01 | -7.96959 | -35.00654 | 4918 ft | 163 kts | 118° |
| 2026-05-04 15:02 | -7.97429 | -34.99627 | 4640 ft | 159 kts | 119° |
| 2026-05-04 15:02 | -7.97886 | -34.98628 | 4282 ft | 153 kts | 119° |
| 2026-05-04 15:02 | -7.98310 | -34.97701 | 4022 ft | 142 kts | 121° |
| 2026-05-04 15:02 | -7.98703 | -34.97180 | 3739 ft | 136 kts | 149° |
| 2026-05-04 15:03 | -7.99539 | -34.96825 | 3410 ft | 128 kts | 157° |
| 2026-05-04 15:03 | -8.00351 | -34.96462 | 2983 ft | 129 kts | 159° |
| 2026-05-04 15:03 | -8.01195 | -34.96138 | 2581 ft | 129 kts | 161° |
| 2026-05-04 15:03 | -8.02028 | -34.95846 | 2202 ft | 128 kts | 162° |
| 2026-05-04 15:04 | -8.02861 | -34.95564 | 1881 ft | 126 kts | 162° |
| 2026-05-04 15:04 | -8.03709 | -34.95282 | 1835 ft | 127 kts | 162° |
| 2026-05-04 15:04 | -8.04524 | -34.95010 | 1794 ft | 121 kts | 162° |
| 2026-05-04 15:04 | -8.05315 | -34.94748 | 1774 ft | 119 kts | 163° |
| 2026-05-04 15:05 | -8.06111 | -34.94483 | 1730 ft | 123 kts | 163° |
| 2026-05-04 15:05 | -8.06964 | -34.94201 | 1225 ft | 130 kts | 162° |
| 2026-05-04 15:05 | -8.07804 | -34.93922 | 722 ft | 125 kts | 160° |
| 2026-05-04 15:05 | -8.08560 | -34.93670 | 649 ft | 112 kts | 161° |
| 2026-05-04 15:06 | -8.09290 | -34.93428 | 502 ft | 108 kts | 162° |
| 2026-05-04 15:06 | -8.10012 | -34.93188 | 355 ft | 109 kts | 163° |
| 2026-05-04 15:06 | -8.10735 | -34.92950 | 220 ft | 112 kts | 162° |
| 2026-05-04 15:07 | -8.12163 | -34.92479 | 31 ft | 83 kts | 162° |
| 2026-05-04 15:07 | -8.12441 | -34.92366 | 36 ft | 29 kts | 142° |
| 2026-05-04 15:07 | -8.12525 | -34.92252 | 35 ft | 14 kts | 131° |
| 2026-05-04 15:07 | -8.12594 | -34.92185 | 36 ft | 13 kts | 146° |
| 2026-05-04 15:08 | -8.12678 | -34.92150 | 36 ft | 13 kts | 162° |
| 2026-05-04 15:08 | -8.12765 | -34.92131 | 36 ft | 13 kts | 173° |
| 2026-05-04 15:08 | -8.12848 | -34.92108 | 34 ft | 12 kts | 168° |
| 2026-05-04 15:08 | -8.12929 | -34.92082 | 36 ft | 12 kts | 158° |
| 2026-05-04 15:09 | -8.12978 | -34.92033 | 37 ft | 10 kts | 91° |
| 2026-05-04 15:09 | -8.12977 | -34.91967 | 36 ft | 3 kts | 89° |